createdAt,value
2023-03-08T00:02:28.705Z,9.04
2023-03-08T00:05:01.980Z,9.04
2023-03-08T00:07:34.968Z,9.03
2023-03-08T00:10:08.022Z,9.03
2023-03-08T00:12:42.386Z,9.04
2023-03-08T00:15:15.251Z,9.03
2023-03-08T00:17:48.357Z,9.03
2023-03-08T00:20:21.093Z,9.03
2023-03-08T00:22:53.829Z,9.01
2023-03-08T00:25:27.175Z,9.03
2023-03-08T00:28:01.228Z,9.02
2023-03-08T00:30:33.954Z,9.03
2023-03-08T00:33:06.683Z,9.02
2023-03-08T00:35:39.390Z,9.02
2023-03-08T00:38:12.104Z,9.02
2023-03-08T00:40:44.801Z,9.03
2023-03-08T00:43:19.073Z,9.01
2023-03-08T00:45:53.122Z,9.02
2023-03-08T00:48:26.228Z,9.03
2023-03-08T00:50:58.908Z,9.03
2023-03-08T00:53:31.713Z,9.02
2023-03-08T00:56:04.532Z,9.03
2023-03-08T00:58:39.507Z,9.02
2023-03-08T01:01:15.246Z,9.02
2023-03-08T01:03:48.101Z,9.02
2023-03-08T01:06:20.817Z,9.02
2023-03-08T01:08:53.553Z,9.02
2023-03-08T01:11:26.931Z,9.03
2023-03-08T01:14:00.975Z,9.04
2023-03-08T01:16:34.673Z,9.01
2023-03-08T01:19:07.401Z,9.03
2023-03-08T01:21:40.071Z,9.05
2023-03-08T01:24:13.035Z,9.03
2023-03-08T01:26:45.732Z,9.03
2023-03-08T01:29:19.846Z,9.04
2023-03-08T01:31:52.499Z,9.03
2023-03-08T01:34:25.316Z,9.03
2023-03-08T01:36:57.994Z,9.03
2023-03-08T01:39:30.675Z,9.03
2023-03-08T01:42:07.214Z,9.02
2023-03-08T01:44:55.590Z,9.03
2023-03-08T01:47:29.105Z,9.02
2023-03-08T01:50:04.252Z,9.02
2023-03-08T01:52:39.118Z,9.01
2023-03-08T01:55:13.747Z,9.02
2023-03-08T01:57:48.670Z,9.02
2023-03-08T02:00:23.143Z,9.02
2023-03-08T02:02:59.390Z,9.01
2023-03-08T02:05:32.811Z,9.02
2023-03-08T02:08:05.665Z,9.04
2023-03-08T02:10:39.176Z,9.03
2023-03-08T02:13:12.584Z,9.05
2023-03-08T02:15:45.436Z,9.05
2023-03-08T02:18:19.606Z,9.05
2023-03-08T02:20:52.294Z,9.06
2023-03-08T02:23:26.657Z,9.04
2023-03-08T02:26:01.736Z,9.04
2023-03-08T02:28:34.664Z,9.05
2023-03-08T02:31:07.605Z,9.05
2023-03-08T02:33:40.325Z,9.03
2023-03-08T02:36:19.594Z,9.03
2023-03-08T02:38:53.694Z,9.01
2023-03-08T02:41:26.638Z,9.00
2023-03-08T02:43:59.412Z,8.96
2023-03-08T02:46:32.272Z,8.94
2023-03-08T02:49:05.308Z,8.91
2023-03-08T02:51:38.473Z,8.85
2023-03-08T02:54:12.556Z,8.80
2023-03-08T02:56:45.315Z,8.75
2023-03-08T02:59:18.058Z,8.69
2023-03-08T03:01:52.373Z,8.64
2023-03-08T03:04:25.313Z,8.59
2023-03-08T03:06:58.745Z,8.53
2023-03-08T03:09:32.918Z,8.48
2023-03-08T03:12:05.884Z,8.42
2023-03-08T03:14:38.548Z,8.36
2023-03-08T03:17:11.332Z,8.34
2023-03-08T03:19:44.006Z,8.30
2023-03-08T03:22:16.872Z,8.24
2023-03-08T03:24:52.250Z,8.23
2023-03-08T03:27:24.945Z,8.22
2023-03-08T03:29:57.653Z,8.20
2023-03-08T03:32:30.526Z,8.17
2023-03-08T03:35:03.387Z,8.16
2023-03-08T03:37:36.859Z,8.16
2023-03-08T03:40:11.931Z,8.14
2023-03-08T03:42:44.646Z,8.15
2023-03-08T03:45:17.489Z,8.13
2023-03-08T03:47:50.256Z,8.14
2023-03-08T03:50:24.175Z,8.12
2023-03-08T03:52:56.950Z,8.13
2023-03-08T03:55:31.016Z,8.14
2023-03-08T03:58:03.786Z,8.14
2023-03-08T04:00:36.454Z,8.16
2023-03-08T04:03:09.273Z,8.16
2023-03-08T04:05:41.991Z,8.17
2023-03-08T04:08:15.005Z,8.19
2023-03-08T04:10:49.114Z,8.20
2023-03-08T04:13:22.275Z,8.21
2023-03-08T04:15:55.030Z,8.24
2023-03-08T04:18:27.770Z,8.26
2023-03-08T04:21:00.605Z,8.28
2023-03-08T04:23:33.723Z,8.30
2023-03-08T04:26:08.320Z,8.30
2023-03-08T04:28:41.090Z,8.33
2023-03-08T04:31:14.967Z,8.34
2023-03-08T04:33:48.167Z,8.35
2023-03-08T04:36:21.626Z,8.37
2023-03-08T04:38:54.421Z,8.39
2023-03-08T04:41:28.541Z,8.41
2023-03-08T04:44:01.399Z,8.43
2023-03-08T04:46:34.192Z,8.44
2023-03-08T04:49:06.990Z,8.45
2023-03-08T04:51:39.692Z,8.47
2023-03-08T04:54:12.712Z,8.47
2023-03-08T04:56:46.733Z,8.49
2023-03-08T04:59:19.416Z,8.51
2023-03-08T05:01:52.153Z,8.52
2023-03-08T15:01:26.791Z,16.53
2023-03-08T15:03:59.861Z,16.55
2023-03-08T15:06:34.283Z,16.56
2023-03-08T15:09:08.599Z,16.56
2023-03-08T15:11:41.725Z,16.59
2023-03-08T15:14:14.757Z,16.57
2023-03-08T15:16:51.282Z,16.55
2023-03-08T15:19:24.017Z,16.50
2023-03-08T15:21:56.983Z,16.48
2023-03-08T15:24:29.755Z,16.43
2023-03-08T15:27:02.507Z,16.35
2023-03-08T15:29:36.924Z,16.28
2023-03-08T15:32:11.725Z,16.18
2023-03-08T15:34:44.490Z,16.07
2023-03-08T15:37:17.387Z,15.97
2023-03-08T15:39:50.115Z,15.87
2023-03-08T15:42:23.014Z,15.77
2023-03-08T15:44:55.665Z,15.65
2023-03-08T15:47:29.969Z,15.55
2023-03-08T15:50:03.106Z,15.44
2023-03-08T15:52:35.877Z,15.34
2023-03-08T15:55:09.517Z,15.26
2023-03-08T15:57:43.410Z,15.15
2023-03-08T16:00:17.748Z,15.07
2023-03-08T16:02:52.563Z,14.98
2023-03-08T16:05:26.745Z,14.92
2023-03-08T16:08:00.586Z,14.84
2023-03-08T16:10:40.282Z,14.77
2023-03-08T16:13:13.023Z,14.68
2023-03-08T16:15:46.082Z,14.64
2023-03-08T16:18:20.353Z,14.55
2023-03-08T16:20:53.015Z,14.51
2023-03-08T16:23:25.692Z,14.43
2023-03-08T16:26:13.604Z,14.39
2023-03-08T16:28:48.124Z,14.33
2023-03-08T16:31:21.890Z,14.27
2023-03-08T16:33:56.130Z,14.21
2023-03-08T16:36:28.769Z,14.14
2023-03-08T16:39:01.638Z,14.07
2023-03-08T16:41:34.492Z,14.01
2023-03-08T16:44:07.958Z,13.92
2023-03-08T16:46:42.627Z,13.84
2023-03-08T16:49:16.964Z,13.78
2023-03-08T16:51:50.395Z,13.69
2023-03-08T16:54:23.524Z,13.61
2023-03-08T16:56:56.194Z,13.54
2023-03-08T16:59:28.865Z,13.47
2023-03-08T17:02:01.596Z,13.41
2023-03-08T17:04:35.772Z,13.36
2023-03-08T17:07:08.818Z,13.29
2023-03-08T17:09:41.904Z,13.25
2023-03-08T17:12:14.721Z,13.18
2023-03-08T17:14:47.528Z,13.14
2023-03-08T17:17:20.166Z,13.11
2023-03-08T17:19:54.811Z,13.08
2023-03-08T17:22:27.462Z,13.04
2023-03-08T17:25:00.288Z,13.03
2023-03-08T17:27:32.950Z,13.00
2023-03-08T17:30:06.194Z,13.01
2023-03-08T17:32:38.941Z,12.97
2023-03-08T17:35:13.133Z,12.97
2023-03-08T17:37:46.091Z,12.97
2023-03-08T17:40:19.750Z,12.95
2023-03-08T17:42:52.535Z,12.97
2023-03-08T17:45:25.420Z,12.96
2023-03-08T17:48:02.656Z,12.95
2023-03-08T17:50:36.951Z,12.95
2023-03-08T17:53:12.762Z,12.95
2023-03-08T17:55:45.523Z,12.92
2023-03-08T17:58:20.007Z,12.90
2023-03-08T18:00:52.932Z,12.89
2023-03-08T18:03:25.881Z,12.88
2023-03-08T18:05:59.918Z,12.85
2023-03-08T18:08:32.736Z,12.86
2023-03-08T18:11:05.582Z,12.84
2023-03-08T18:13:40.633Z,12.80
2023-03-08T18:16:13.890Z,12.79
2023-03-08T18:18:50.243Z,12.77
2023-03-08T18:21:24.433Z,12.75
2023-03-08T18:23:57.087Z,12.73
2023-03-08T18:26:29.882Z,12.70
2023-03-08T18:29:02.533Z,12.68
2023-03-08T18:31:37.377Z,12.68
2023-03-08T18:34:10.531Z,12.65
2023-03-08T18:36:44.816Z,12.63
2023-03-08T18:39:17.593Z,12.61
2023-03-08T18:41:50.326Z,12.58
2023-03-08T18:44:23.073Z,12.56
2023-03-08T18:46:56.078Z,12.56
2023-03-08T18:49:28.845Z,12.52
2023-03-08T18:52:04.855Z,12.51
2023-03-08T18:54:38.742Z,12.48
2023-03-08T18:57:11.445Z,12.46
2023-03-08T18:59:44.231Z,12.43
2023-03-08T19:02:19.060Z,12.42
2023-03-08T19:04:52.870Z,12.40
2023-03-08T19:07:27.116Z,12.38
2023-03-08T19:10:01.609Z,12.39
2023-03-08T19:12:37.449Z,12.38
2023-03-08T19:15:11.680Z,12.38
2023-03-08T19:17:44.471Z,12.39
2023-03-08T19:20:17.142Z,12.43
2023-03-08T19:22:51.438Z,12.44
2023-03-08T19:25:24.505Z,12.45
2023-03-08T19:27:57.276Z,12.46
2023-03-08T19:30:29.913Z,12.49
2023-03-08T19:33:02.935Z,12.52
2023-03-08T19:35:35.899Z,12.53
2023-03-08T19:38:10.185Z,12.55
2023-03-08T19:40:44.310Z,12.57
2023-03-08T19:43:17.077Z,12.58
2023-03-08T19:45:50.424Z,12.61
2023-03-08T19:48:23.197Z,12.61
2023-03-08T19:50:55.908Z,12.61
2023-03-08T19:53:30.095Z,12.62
2023-03-08T19:56:03.066Z,12.63
2023-03-08T19:58:35.901Z,12.63
2023-03-08T20:01:09.818Z,12.63
2023-03-08T20:03:42.715Z,12.66
2023-03-08T20:06:22.324Z,12.66
2023-03-08T20:08:57.129Z,12.69
2023-03-08T20:11:30.193Z,12.69
2023-03-08T20:14:03.040Z,12.71
2023-03-08T20:16:35.977Z,12.73
2023-03-08T20:19:08.792Z,12.76
2023-03-08T20:21:41.852Z,12.78
2023-03-08T20:24:18.514Z,12.82
2023-03-08T20:26:51.475Z,12.84
2023-03-08T20:29:24.729Z,12.88
2023-03-08T20:31:58.509Z,12.90
2023-03-08T20:34:32.358Z,12.93
2023-03-08T20:37:05.155Z,12.96
2023-03-08T20:39:39.694Z,12.99
2023-03-08T20:42:12.449Z,13.02
2023-03-08T20:44:45.314Z,13.05
2023-03-08T20:47:18.249Z,13.08
2023-03-08T20:49:51.020Z,13.12
2023-03-08T20:52:23.897Z,13.16
2023-03-08T20:54:58.107Z,13.19
2023-03-08T20:57:30.973Z,13.23
2023-03-08T21:00:04.870Z,13.28
2023-03-08T21:02:38.110Z,13.30
2023-03-08T21:05:11.224Z,13.32
2023-03-08T21:07:43.996Z,13.35
2023-03-08T21:10:19.093Z,13.35
2023-03-08T21:12:52.014Z,13.34
2023-03-08T21:15:25.039Z,13.34
2023-03-08T21:17:57.820Z,13.31
2023-03-08T21:20:30.607Z,13.29
2023-03-08T21:23:03.456Z,13.25
2023-03-08T21:25:38.817Z,13.19
2023-03-08T21:28:11.570Z,13.14
2023-03-08T21:30:44.582Z,13.10
2023-03-08T21:33:17.278Z,13.07
2023-03-08T21:35:50.743Z,13.07
2023-03-08T21:38:24.805Z,13.08
2023-03-08T21:40:59.573Z,13.09
2023-03-08T21:43:32.407Z,13.09
2023-03-08T21:46:05.413Z,13.12
2023-03-08T21:48:38.192Z,13.15
2023-03-08T21:51:11.329Z,13.20
2023-03-08T21:53:44.779Z,13.23
2023-03-08T21:56:19.676Z,13.25
2023-03-08T21:58:52.484Z,13.28
2023-03-08T22:01:26.831Z,13.31
2023-03-08T22:04:00.463Z,13.33
2023-03-08T22:06:33.547Z,13.36
2023-03-08T22:09:06.449Z,13.39
2023-03-08T22:11:41.080Z,13.38
2023-03-08T22:14:13.898Z,13.41
2023-03-08T22:16:47.140Z,13.43
2023-03-08T22:19:19.927Z,13.44
2023-03-08T22:21:53.087Z,13.45
2023-03-08T22:24:25.952Z,13.47
2023-03-08T22:27:00.121Z,13.46
2023-03-08T22:29:33.867Z,13.47
2023-03-08T22:32:07.986Z,13.49
2023-03-08T22:34:40.999Z,13.49
2023-03-08T22:37:13.819Z,13.50
2023-03-08T22:39:46.757Z,13.53
2023-03-08T22:42:20.950Z,13.54
2023-03-08T22:44:53.913Z,13.57
2023-03-08T22:47:26.876Z,13.62
2023-03-08T22:49:59.561Z,13.65
2023-03-08T22:52:32.302Z,13.69
2023-03-08T22:55:05.223Z,13.70
2023-03-08T22:57:39.344Z,13.74
2023-03-08T23:00:15.297Z,13.76
2023-03-08T23:02:50.785Z,13.80
2023-03-08T23:05:28.813Z,13.83
2023-03-08T23:08:02.441Z,13.88
2023-03-08T23:10:44.287Z,13.91
2023-03-08T23:13:32.757Z,13.94
2023-03-08T23:16:07.808Z,14.00
2023-03-08T23:18:41.111Z,14.04
2023-03-08T23:21:15.278Z,14.09
2023-03-08T23:23:48.182Z,14.15
2023-03-08T23:26:24.472Z,14.19
2023-03-08T23:29:00.706Z,14.22
2023-03-08T23:31:34.699Z,14.24
2023-03-08T23:34:07.598Z,14.26
2023-03-08T23:36:40.307Z,14.26
2023-03-08T23:39:12.964Z,14.26
2023-03-08T23:41:45.799Z,14.27
2023-03-08T23:44:19.974Z,14.23
2023-03-08T23:46:52.793Z,14.21
2023-03-08T23:49:25.492Z,14.20
2023-03-08T23:51:58.149Z,14.18
2023-03-08T23:54:30.879Z,14.18
2023-03-08T23:57:03.587Z,14.19
2023-03-08T23:59:37.687Z,14.20
